Green Ray — D5EY2 — position and weather

sailwx.info

Track history (hours):
 
Tides and Currents Weather Stations Pressure Air Temp Water Temp Dewpoint Dewpoint Depression Visibility Wind Speed Wind Dir Waves Ship Positions

Green Ray

Last reported at 2017-Nov-18 11:03 UTC. Time now 2017-Nov-18 12:20 UTC.
Position N 54°42' W 000°51'.

Length 145 m; draft 8 m.

Type: Ship (hazmat cat A). MMSI: 636016193.

Date/timePositionNaut miles runAvg speedWind from/ knotsBaromVisibWave heightAir tempDewpointWater temp
2017-Nov-18 11:03N 54°42' W 000°51'0 0.0
2017-Nov-18 09:09N 54°42' W 000°51'0 0.1
2017-Nov-18 08:51N 54°42' W 000°51'0 0.0
2017-Nov-18 08:21N 54°42' W 000°51'0 0.0
2017-Nov-18 07:09N 54°42' W 000°51'0 0.0
2017-Nov-18 01:57N 54°43' W 000°51'0 0.0
2017-Nov-18 01:09N 54°43' W 000°51'0 0.0
2017-Nov-18 00:57N 54°43' W 000°51'0 0.0
2017-Nov-18 00:09N 54°43' W 000°51'0 0.1
2017-Nov-17 23:57N 54°43' W 000°51'0 0.1
2017-Nov-17 23:27N 54°43' W 000°51'0 0.0
2017-Nov-17 22:56N 54°43' W 000°51'0 0.0
2017-Nov-17 22:26N 54°43' W 000°51'0 0.1
2017-Nov-17 21:56N 54°43' W 000°51'0 0.0
2017-Nov-17 21:26N 54°43' W 000°51'0 0.0
2017-Nov-17 20:56N 54°43' W 000°51'0 0.2
2017-Nov-17 20:26N 54°43' W 000°51'1 1.2
2017-Nov-17 20:00N 54°42' W 000°50'4 8.2
2017-Nov-17 19:30N 54°42' W 000°43'1111.9
2017-Nov-17 18:33N 54°40' W 000°24'112.3
2017-Nov-17 18:31N 54°40' W 000°23'612.5
2017-Nov-17 18:01N 54°36' W 000°15'612.8
2017-Nov-17 17:31N 54°31' W 000°08'612.5
2017-Nov-17 17:00N 54°26' W 000°02'612.4
2017-Nov-17 16:31N 54°21' E 000°05'612.0
2017-Nov-17 16:01N 54°16' E 000°11'611.8
2017-Nov-17 15:30N 54°11' E 000°17'611.7
2017-Nov-17 15:00N 54°07' E 000°22'711.6
2017-Nov-17 14:23N 54°00' E 000°29'4713.4
2017-Nov-17 10:52N 53°20' E 001°10'514.7
2017-Nov-17 10:30N 53°16' E 001°15'712.9
2017-Nov-17 10:00N 53°12' E 001°23'713.5
2017-Nov-17 09:30N 53°10' E 001°34'713.0
2017-Nov-17 09:00N 53°08' E 001°44'612.5
2017-Nov-17 08:30N 53°06' E 001°54'612.0
2017-Nov-17 08:00N 53°02' E 002°02'611.6
2017-Nov-17 07:30N 52°59' E 002°10'9011.8
2017-Nov-16 23:52N 51°29' E 002°13'513.9
2017-Nov-16 23:30N 51°25' E 002°08'612.2
2017-Nov-16 23:00N 51°19' E 002°09'611.7
2017-Nov-16 22:30N 51°14' E 002°03'713.8
2017-Nov-16 22:00N 51°10' E 001°54'713.9
2017-Nov-16 21:30N 51°06' E 001°45'713.7
2017-Nov-16 21:00N 51°02' E 001°37'713.3
2017-Nov-16 20:29N 50°56' E 001°30'5812.2
2017-Nov-16 15:45N 50°22' E 000°16'412.6
2017-Nov-16 15:24N 50°21' E 000°09'512.5
2017-Nov-16 14:59N 50°20' E 000°01'612.3
2017-Nov-16 14:30N 50°18' W 000°08'612.0
2017-Nov-16 14:00N 50°17' W 000°17'1011.7
2017-Nov-16 13:10N 50°14' W 000°31'311.3
2017-Nov-16 12:52N 50°13' W 000°36'711.2
2017-Nov-16 12:17N 50°11' W 000°46'311.2
2017-Nov-16 12:00N 50°10' W 000°51'611.3
2017-Nov-16 11:30N 50°09' W 000°59'611.6
2017-Nov-16 11:00N 50°07' W 001°08'612.1
2017-Nov-16 10:30N 50°05' W 001°17'612.8
2017-Nov-16 10:00N 50°03' W 001°26'713.6
2017-Nov-16 09:30N 50°01' W 001°36'714.2
2017-Nov-16 09:00N 49°59' W 001°47'714.8
2017-Nov-16 08:30N 49°58' W 001°58'815.4
2017-Nov-16 08:00N 49°56' W 002°10'3315.4
2017-Nov-16 05:51N 49°48' W 002°60'1315.0
2017-Nov-16 04:58N 49°44' W 003°19'1114.9
2017-Nov-16 04:15N 49°41' W 003°35'814.9
2017-Nov-16 03:44N 49°39' W 003°47'314.9
2017-Nov-16 03:31N 49°39' W 003°52'2314.6
2017-Nov-16 01:56N 49°32' W 004°26'614.3
2017-Nov-16 01:29N 49°30' W 004°36'714.0
2017-Nov-16 00:57N 49°28' W 004°47'714.0
2017-Nov-16 00:29N 49°27' W 004°56'713.8
2017-Nov-15 23:58N 49°24' W 005°07'613.6
2017-Nov-15 23:29N 49°22' W 005°16'613.3
2017-Nov-15 23:00N 49°20' W 005°26'612.9
2017-Nov-15 22:30N 49°19' W 005°35'612.7
2017-Nov-15 22:00N 49°17' W 005°45'612.5
2017-Nov-15 21:30N 49°15' W 005°54'612.5
2017-Nov-15 21:00N 49°13' W 006°03'612.5
2017-Nov-15 20:30N 49°11' W 006°12'812.5
2017-Nov-15 19:50N 49°09' W 006°24'512.5
2017-Nov-15 19:25N 49°07' W 006°32'712.4
2017-Nov-15 18:53N 49°05' W 006°41'612.7
2017-Nov-15 18:26N 49°03' W 006°49'1712.8
2017-Nov-15 17:06N 48°57' W 007°13'  
2017-Nov-12 08:32N 43°26' W 031°49'012.7
2017-Nov-12 08:30N 43°26' W 031°50'  
Track history (hours):
 
Tides and Currents Weather Stations Pressure Air Temp Water Temp Dewpoint Dewpoint Depression Visibility Wind Speed Wind Dir Waves Ship Positions

Green Ray

Last reported at 2017-Nov-18 11:03 UTC. Time now 2017-Nov-18 12:20 UTC.
Position N 54°42' W 000°51'.

Length 145 m; draft 8 m.

Type: Ship (hazmat cat A). MMSI: 636016193.

Date/timePositionNaut miles runAvg speedWind from/ knotsBaromVisibWave heightAir tempDewpointWater temp
2017-Nov-18 11:03N 54°42' W 000°51'0 0.0
2017-Nov-18 09:09N 54°42' W 000°51'0 0.1
2017-Nov-18 08:51N 54°42' W 000°51'0 0.0
2017-Nov-18 08:21N 54°42' W 000°51'0 0.0
2017-Nov-18 07:09N 54°42' W 000°51'0 0.0
2017-Nov-18 01:57N 54°43' W 000°51'0 0.0
2017-Nov-18 01:09N 54°43' W 000°51'0 0.0
2017-Nov-18 00:57N 54°43' W 000°51'0 0.0
2017-Nov-18 00:09N 54°43' W 000°51'0 0.1
2017-Nov-17 23:57N 54°43' W 000°51'0 0.1
2017-Nov-17 23:27N 54°43' W 000°51'0 0.0
2017-Nov-17 22:56N 54°43' W 000°51'0 0.0
2017-Nov-17 22:26N 54°43' W 000°51'0 0.1
2017-Nov-17 21:56N 54°43' W 000°51'0 0.0
2017-Nov-17 21:26N 54°43' W 000°51'0 0.0
2017-Nov-17 20:56N 54°43' W 000°51'0 0.2
2017-Nov-17 20:26N 54°43' W 000°51'1 1.2
2017-Nov-17 20:00N 54°42' W 000°50'4 8.2
2017-Nov-17 19:30N 54°42' W 000°43'1111.9
2017-Nov-17 18:33N 54°40' W 000°24'112.3
2017-Nov-17 18:31N 54°40' W 000°23'612.5
2017-Nov-17 18:01N 54°36' W 000°15'612.8
2017-Nov-17 17:31N 54°31' W 000°08'612.5
2017-Nov-17 17:00N 54°26' W 000°02'612.4
2017-Nov-17 16:31N 54°21' E 000°05'612.0
2017-Nov-17 16:01N 54°16' E 000°11'611.8
2017-Nov-17 15:30N 54°11' E 000°17'611.7
2017-Nov-17 15:00N 54°07' E 000°22'711.6
2017-Nov-17 14:23N 54°00' E 000°29'4713.4
2017-Nov-17 10:52N 53°20' E 001°10'514.7
2017-Nov-17 10:30N 53°16' E 001°15'712.9
2017-Nov-17 10:00N 53°12' E 001°23'713.5
2017-Nov-17 09:30N 53°10' E 001°34'713.0
2017-Nov-17 09:00N 53°08' E 001°44'612.5
2017-Nov-17 08:30N 53°06' E 001°54'612.0
2017-Nov-17 08:00N 53°02' E 002°02'611.6
2017-Nov-17 07:30N 52°59' E 002°10'9011.8
2017-Nov-16 23:52N 51°29' E 002°13'513.9
2017-Nov-16 23:30N 51°25' E 002°08'612.2
2017-Nov-16 23:00N 51°19' E 002°09'611.7
2017-Nov-16 22:30N 51°14' E 002°03'713.8
2017-Nov-16 22:00N 51°10' E 001°54'713.9
2017-Nov-16 21:30N 51°06' E 001°45'713.7
2017-Nov-16 21:00N 51°02' E 001°37'713.3
2017-Nov-16 20:29N 50°56' E 001°30'5812.2
2017-Nov-16 15:45N 50°22' E 000°16'412.6
2017-Nov-16 15:24N 50°21' E 000°09'512.5
2017-Nov-16 14:59N 50°20' E 000°01'612.3
2017-Nov-16 14:30N 50°18' W 000°08'612.0
2017-Nov-16 14:00N 50°17' W 000°17'1011.7
2017-Nov-16 13:10N 50°14' W 000°31'311.3
2017-Nov-16 12:52N 50°13' W 000°36'711.2
2017-Nov-16 12:17N 50°11' W 000°46'311.2
2017-Nov-16 12:00N 50°10' W 000°51'611.3
2017-Nov-16 11:30N 50°09' W 000°59'611.6
2017-Nov-16 11:00N 50°07' W 001°08'612.1
2017-Nov-16 10:30N 50°05' W 001°17'612.8
2017-Nov-16 10:00N 50°03' W 001°26'713.6
2017-Nov-16 09:30N 50°01' W 001°36'714.2
2017-Nov-16 09:00N 49°59' W 001°47'714.8
2017-Nov-16 08:30N 49°58' W 001°58'815.4
2017-Nov-16 08:00N 49°56' W 002°10'3315.4
2017-Nov-16 05:51N 49°48' W 002°60'1315.0
2017-Nov-16 04:58N 49°44' W 003°19'1114.9
2017-Nov-16 04:15N 49°41' W 003°35'814.9
2017-Nov-16 03:44N 49°39' W 003°47'314.9
2017-Nov-16 03:31N 49°39' W 003°52'2314.6
2017-Nov-16 01:56N 49°32' W 004°26'614.3
2017-Nov-16 01:29N 49°30' W 004°36'714.0
2017-Nov-16 00:57N 49°28' W 004°47'714.0
2017-Nov-16 00:29N 49°27' W 004°56'713.8
2017-Nov-15 23:58N 49°24' W 005°07'613.6
2017-Nov-15 23:29N 49°22' W 005°16'613.3
2017-Nov-15 23:00N 49°20' W 005°26'612.9
2017-Nov-15 22:30N 49°19' W 005°35'612.7
2017-Nov-15 22:00N 49°17' W 005°45'612.5
2017-Nov-15 21:30N 49°15' W 005°54'612.5
2017-Nov-15 21:00N 49°13' W 006°03'612.5
2017-Nov-15 20:30N 49°11' W 006°12'812.5
2017-Nov-15 19:50N 49°09' W 006°24'512.5
2017-Nov-15 19:25N 49°07' W 006°32'712.4
2017-Nov-15 18:53N 49°05' W 006°41'612.7
2017-Nov-15 18:26N 49°03' W 006°49'1712.8
2017-Nov-15 17:06N 48°57' W 007°13'  
2017-Nov-12 08:32N 43°26' W 031°49'012.7
2017-Nov-12 08:30N 43°26' W 031°50'  

Dump ship's entire track history